Aviation Digital Data Service (ADDS)

Output produced by METARs form (0554 UTC 06 March 2015)
found at http://www.aviationweather.gov/adds/metars/
 
KDEC 060520Z 0606/0706 VRB03KT P6SM SKC 
     FM061200 18006KT P6SM BKN140 
     FM061500 19016G22KT P6SM BKN100 
     FM070000 21012KT P6SM SCT250